createdAt,value
2022-09-24T00:01:45.260Z,100810.88
2022-09-24T00:04:27.454Z,100807.88
2022-09-24T00:07:08.968Z,100804.38
2022-09-24T00:10:01.487Z,100805.22
2022-09-24T00:12:42.227Z,100810.38
2022-09-24T00:15:22.052Z,100808.53
2022-09-24T00:18:01.957Z,100811.53
2022-09-24T00:20:41.670Z,100813.03
2022-09-24T00:23:21.443Z,100812.88
2022-09-24T00:26:19.438Z,100812.22
2022-09-24T00:28:59.937Z,100801.88
2022-09-24T00:31:40.508Z,100803.22
2022-09-24T00:34:22.494Z,100800.72
2022-09-24T00:37:02.904Z,100801.72
2022-09-24T00:39:42.734Z,100798.38
2022-09-24T00:42:22.832Z,100790.84
2022-09-24T00:45:02.340Z,100783.69
2022-09-24T00:47:43.550Z,100780.19
2022-09-24T00:50:26.293Z,100782.69
2022-09-24T00:53:09.489Z,100782.84
2022-09-24T00:55:51.658Z,100780.34
2022-09-24T00:58:31.209Z,100780.53
2022-09-24T01:01:12.804Z,100780.53
2022-09-24T01:03:54.435Z,100781.84
2022-09-24T01:06:35.175Z,100789.84
2022-09-24T01:09:13.706Z,100790.19
2022-09-24T01:12:01.213Z,100784.84
2022-09-24T01:14:51.414Z,100783.84
2022-09-24T01:17:38.385Z,100784.38
2022-09-24T01:20:49.281Z,100778.88
2022-09-24T01:24:04.719Z,100787.84
2022-09-24T01:26:57.020Z,100779.53
2022-09-24T01:29:50.171Z,100779.53
2022-09-24T01:32:34.372Z,100769.19
2022-09-24T01:35:16.641Z,100767.19
2022-09-24T01:38:00.041Z,100766.19
2022-09-24T01:40:40.775Z,100762.69
2022-09-24T01:43:22.073Z,100761.19
2022-09-24T01:46:06.384Z,100747.16
2022-09-24T01:48:47.680Z,100752.16
2022-09-24T01:51:34.242Z,100743.50
2022-09-24T01:54:22.019Z,100748.50
2022-09-24T01:57:09.553Z,100744.81
2022-09-24T01:59:55.128Z,100735.81
2022-09-24T02:02:40.608Z,100727.50
2022-09-24T02:05:27.167Z,100724.47
2022-09-24T02:08:10.425Z,100725.47
2022-09-24T02:10:54.843Z,100730.16
2022-09-24T02:13:40.226Z,100729.28
2022-09-24T02:16:22.845Z,100730.16
2022-09-24T02:19:06.075Z,100728.97
2022-09-24T02:21:49.104Z,100728.81
2022-09-24T02:24:35.308Z,100728.31
2022-09-24T02:27:16.071Z,100733.97
2022-09-24T02:29:56.034Z,100732.47
2022-09-24T02:32:37.044Z,100730.47
2022-09-24T02:35:17.773Z,100729.44
2022-09-24T02:38:01.676Z,100727.44
2022-09-24T02:40:44.975Z,100731.41
2022-09-24T02:43:25.893Z,100730.50
2022-09-24T02:46:06.181Z,100713.81
2022-09-24T02:48:47.660Z,100698.31
2022-09-24T02:51:29.296Z,100689.81
2022-09-24T02:54:11.019Z,100683.47
2022-09-24T02:56:51.869Z,100674.47
2022-09-24T02:59:33.275Z,100668.63
2022-09-24T03:02:12.844Z,100663.31
2022-09-24T03:04:52.755Z,100657.31
2022-09-24T03:07:33.332Z,100651.97
2022-09-24T03:10:26.510Z,100646.81
2022-09-24T03:13:06.985Z,100648.81
2022-09-24T03:15:47.449Z,100653.47
2022-09-24T03:18:28.110Z,100652.81
2022-09-24T03:21:10.945Z,100650.16
2022-09-24T03:23:49.974Z,100638.66
2022-09-24T03:26:29.300Z,100638.81
2022-09-24T03:29:11.444Z,100635.50
2022-09-24T03:31:54.040Z,100622.34
2022-09-24T03:34:33.510Z,100612.84
2022-09-24T03:37:15.127Z,100617.16
2022-09-24T03:39:56.519Z,100623.34
2022-09-24T03:42:37.937Z,100616.66
2022-09-24T03:45:17.861Z,100617.47
2022-09-24T03:47:57.215Z,100622.81
2022-09-24T03:50:38.617Z,100620.16
2022-09-24T03:53:19.158Z,100623.66
2022-09-24T03:56:02.325Z,100615.97
2022-09-24T03:58:47.913Z,100614.81
2022-09-24T04:01:33.086Z,100604.16
2022-09-24T04:04:15.461Z,100606.97
2022-09-24T04:06:54.994Z,100611.00
2022-09-24T04:09:36.105Z,100616.50
2022-09-24T04:12:16.260Z,100618.47
2022-09-24T04:14:56.345Z,100620.81
2022-09-24T04:17:35.857Z,100622.31
2022-09-24T04:20:17.820Z,100620.31
2022-09-24T04:22:58.835Z,100619.97
2022-09-24T04:25:41.369Z,100615.16
2022-09-24T04:28:21.451Z,100612.97
2022-09-24T04:31:02.355Z,100607.16
2022-09-24T04:33:43.689Z,100609.66
2022-09-24T04:36:26.082Z,100608.16
2022-09-24T04:39:07.579Z,100604.50
2022-09-24T04:41:48.922Z,100610.81
2022-09-24T04:44:33.028Z,100615.16
2022-09-24T04:47:15.412Z,100617.97
2022-09-24T04:49:55.907Z,100609.16
2022-09-24T04:52:36.895Z,100606.47
2022-09-24T04:55:29.023Z,100610.97
2022-09-24T04:58:09.275Z,100605.81
2022-09-24T05:00:48.534Z,100609.31
2022-09-24T05:03:29.330Z,100601.78
2022-09-24T05:06:09.939Z,100599.13
2022-09-24T05:08:50.573Z,100600.78
2022-09-24T05:11:31.037Z,100600.31
2022-09-24T05:14:10.748Z,100603.47
2022-09-24T05:16:52.985Z,100601.78
2022-09-24T05:19:33.714Z,100605.13
2022-09-24T05:22:13.433Z,100597.97
2022-09-24T05:24:53.189Z,100601.75
2022-09-24T05:27:35.725Z,100601.59
2022-09-24T05:30:17.540Z,100600.88
2022-09-24T05:32:57.652Z,100609.50
2022-09-24T05:35:37.243Z,100594.84
2022-09-24T05:38:17.461Z,100602.38
2022-09-24T05:40:56.942Z,100608.53
2022-09-24T05:43:37.874Z,100604.66
2022-09-24T05:46:18.218Z,100603.53
2022-09-24T05:48:58.189Z,100608.88
2022-09-24T05:51:37.658Z,100619.84
2022-09-24T05:54:17.874Z,100624.72
2022-09-24T05:56:59.977Z,100623.41
2022-09-24T05:59:40.282Z,100620.72
2022-09-24T06:02:20.121Z,100623.22
2022-09-24T06:04:59.898Z,100631.06
2022-09-24T06:08:02.612Z,100629.47
2022-09-24T06:10:43.735Z,100627.13
2022-09-24T06:13:22.856Z,100626.63
2022-09-24T06:16:03.544Z,100612.66
2022-09-24T06:18:46.342Z,100618.94
2022-09-24T06:21:25.474Z,100615.44
2022-09-24T06:24:17.317Z,100612.00
2022-09-24T06:26:58.302Z,100611.72
2022-09-24T06:29:38.333Z,100616.41
2022-09-24T06:32:20.093Z,100608.41
2022-09-24T06:34:59.503Z,100601.66
2022-09-24T06:37:39.315Z,100618.81
2022-09-24T06:40:19.213Z,100638.66
2022-09-24T06:42:58.962Z,100647.97
2022-09-24T06:45:38.817Z,100646.78
2022-09-24T06:48:22.175Z,100630.63
2022-09-24T06:51:01.615Z,100633.97
2022-09-24T06:53:41.375Z,100630.13
2022-09-24T06:56:21.234Z,100626.16
2022-09-24T06:59:02.952Z,100636.16
2022-09-24T07:01:45.187Z,100633.81
2022-09-24T07:04:27.426Z,100632.47
2022-09-24T07:07:24.577Z,100631.00
2022-09-24T07:10:07.815Z,100635.16
2022-09-24T07:12:49.200Z,100639.81
2022-09-24T07:15:28.569Z,100644.66
2022-09-24T07:18:08.923Z,100639.66
2022-09-24T07:20:53.735Z,100640.16
2022-09-24T07:23:37.097Z,100631.81
2022-09-24T07:26:17.411Z,100625.81
2022-09-24T07:28:57.265Z,100638.47
2022-09-24T07:31:37.307Z,100644.13
2022-09-24T07:34:16.981Z,100643.16
2022-09-24T07:36:57.255Z,100655.16
2022-09-24T07:39:38.477Z,100650.47
2022-09-24T07:42:17.999Z,100640.47
2022-09-24T07:45:10.606Z,100637.44
2022-09-24T07:48:05.763Z,100635.13
2022-09-24T07:50:45.278Z,100644.78
2022-09-24T07:53:25.110Z,100646.41
2022-09-24T07:56:05.105Z,100644.78
2022-09-24T07:58:44.771Z,100647.91
2022-09-24T08:01:25.456Z,100655.25
2022-09-24T08:04:08.372Z,100649.53
2022-09-24T08:06:48.930Z,100658.84
2022-09-24T08:09:27.483Z,100661.31
2022-09-24T08:12:07.424Z,100669.34
2022-09-24T08:14:47.001Z,100673.31
2022-09-24T08:17:27.413Z,100681.63
2022-09-24T08:20:11.493Z,100700.44
2022-09-24T08:22:50.952Z,100710.13
2022-09-24T08:25:31.297Z,100712.59
2022-09-24T08:28:12.598Z,100714.44
2022-09-24T08:30:52.137Z,100713.59
2022-09-24T08:33:33.685Z,100720.63
2022-09-24T08:36:13.560Z,100719.72
2022-09-24T08:38:54.815Z,100713.72
2022-09-24T08:41:45.476Z,100719.53
2022-09-24T08:44:47.396Z,100732.25
2022-09-24T08:47:35.531Z,100729.56
2022-09-24T08:50:17.300Z,100725.53
2022-09-24T08:53:44.632Z,100726.63
2022-09-24T08:56:27.937Z,100728.44
2022-09-24T08:59:19.924Z,100740.94
2022-09-24T09:02:14.651Z,100739.59
2022-09-24T09:05:02.216Z,100741.72
2022-09-24T09:07:46.498Z,100744.88
2022-09-24T09:10:29.140Z,100743.16
2022-09-24T09:13:13.982Z,100744.03
2022-09-24T09:16:00.748Z,100745.88
2022-09-24T09:18:43.533Z,100750.88
2022-09-24T09:21:27.615Z,100745.63
2022-09-24T09:24:13.777Z,100743.50
2022-09-24T09:26:56.028Z,100739.44
2022-09-24T09:29:37.554Z,100747.44
2022-09-24T09:32:30.419Z,100747.53
2022-09-24T09:35:19.412Z,100756.84
2022-09-24T09:38:05.288Z,100751.47
2022-09-24T09:40:49.530Z,100755.16
2022-09-24T09:43:30.417Z,100752.47
2022-09-24T09:46:14.104Z,100750.75
2022-09-24T09:48:57.548Z,100749.75
2022-09-24T09:51:40.209Z,100742.38
2022-09-24T09:54:19.654Z,100744.34
2022-09-24T09:57:03.566Z,100745.31
2022-09-24T09:59:47.161Z,100743.28
2022-09-24T10:02:29.224Z,100751.84
2022-09-24T10:05:24.826Z,100753.16
2022-09-24T10:08:29.844Z,100752.41
2022-09-24T10:11:16.146Z,100743.69
2022-09-24T10:14:04.239Z,100739.22
2022-09-24T10:16:45.090Z,100738.53
2022-09-24T10:19:27.941Z,100731.81
2022-09-24T10:22:16.536Z,100727.78
2022-09-24T10:25:00.447Z,100734.13
2022-09-24T10:27:42.091Z,100723.19
2022-09-24T10:30:34.400Z,100726.84
2022-09-24T10:33:15.499Z,100735.88
2022-09-24T10:36:06.823Z,100732.59
2022-09-24T10:39:12.713Z,100735.22
2022-09-24T10:42:07.537Z,100737.63
2022-09-24T10:44:52.844Z,100734.78
2022-09-24T10:47:37.805Z,100731.53
2022-09-24T10:50:27.372Z,100738.09
2022-09-24T10:53:14.888Z,100731.91
2022-09-24T10:55:57.206Z,100729.88
2022-09-24T10:59:07.675Z,100734.78
2022-09-24T11:02:20.862Z,100741.78
2022-09-24T11:05:16.303Z,100723.06
2022-09-24T11:08:00.255Z,100734.59
2022-09-24T11:10:53.331Z,100736.09
2022-09-24T11:13:41.309Z,100735.69
2022-09-24T11:17:03.187Z,100731.78
2022-09-24T11:19:52.283Z,100732.72
2022-09-24T11:22:38.767Z,100724.66
2022-09-24T11:25:31.482Z,100728.66
2022-09-24T11:28:21.174Z,100724.22
2022-09-24T11:31:09.781Z,100723.47
2022-09-24T11:34:10.259Z,100724.66
2022-09-24T11:37:02.918Z,100720.88
2022-09-24T11:39:56.241Z,100721.72
2022-09-24T11:42:47.089Z,100724.84
2022-09-24T11:45:37.670Z,100730.59
2022-09-24T11:48:29.370Z,100728.75
2022-09-24T11:51:19.585Z,100731.16
2022-09-24T11:54:03.270Z,100721.78
2022-09-24T11:56:44.461Z,100726.31
2022-09-24T11:59:34.169Z,100721.72
2022-09-24T12:02:19.150Z,100723.84
2022-09-24T12:05:03.327Z,100732.06
2022-09-24T12:07:46.520Z,100730.03
2022-09-24T12:10:32.722Z,100722.63
2022-09-24T12:13:17.321Z,100727.59
2022-09-24T12:15:57.891Z,100729.66
2022-09-24T12:18:44.992Z,100726.97
2022-09-24T12:21:32.107Z,100716.53
2022-09-24T12:24:16.157Z,100718.94
2022-09-24T12:26:58.248Z,100715.97
2022-09-24T12:30:01.334Z,100720.69
2022-09-24T12:32:55.822Z,100717.44
2022-09-24T12:35:43.558Z,100717.50
2022-09-24T12:38:28.146Z,100716.16
2022-09-24T12:41:20.009Z,100709.66
2022-09-24T12:44:02.728Z,100706.59
2022-09-24T12:46:45.206Z,100722.16
2022-09-24T12:49:31.084Z,100716.97
2022-09-24T12:52:19.716Z,100712.91
2022-09-24T12:55:02.121Z,100718.66
2022-09-24T12:57:43.425Z,100721.91
2022-09-24T13:00:41.004Z,100711.00
2022-09-24T13:03:33.885Z,100704.69
2022-09-24T13:06:24.113Z,100702.69
2022-09-24T13:09:31.057Z,100702.84
2022-09-24T13:12:22.506Z,100701.31
2022-09-24T13:15:04.327Z,100695.84
2022-09-24T13:17:47.261Z,100700.84
2022-09-24T13:20:27.899Z,100704.50
2022-09-24T13:23:15.789Z,100690.78
2022-09-24T13:26:09.437Z,100696.78
2022-09-24T13:28:55.391Z,100694.94
2022-09-24T13:31:42.143Z,100691.81
2022-09-24T13:34:25.912Z,100695.84
2022-09-24T13:37:15.238Z,100699.53
2022-09-24T13:39:57.659Z,100692.81
2022-09-24T13:42:40.829Z,100695.09
2022-09-24T13:45:21.977Z,100695.22
2022-09-24T13:48:04.783Z,100698.75
2022-09-24T13:50:49.537Z,100690.88
2022-09-24T13:53:32.198Z,100689.72
2022-09-24T13:56:15.548Z,100691.56
2022-09-24T13:59:04.841Z,100690.00
2022-09-24T14:01:47.081Z,100685.31
2022-09-24T14:04:27.077Z,100683.09
2022-09-24T14:07:07.802Z,100684.75
2022-09-24T14:10:07.338Z,100696.91
2022-09-24T14:12:47.755Z,100684.66
2022-09-24T14:15:27.488Z,100688.34
2022-09-24T14:18:12.685Z,100680.97
2022-09-24T14:20:57.709Z,100685.50
2022-09-24T14:23:41.314Z,100684.00
2022-09-24T14:26:28.586Z,100690.72
2022-09-24T14:29:15.238Z,100690.28
2022-09-24T14:31:58.029Z,100684.91
2022-09-24T14:34:39.818Z,100680.84
2022-09-24T14:37:20.637Z,100679.00
2022-09-24T14:40:04.671Z,100672.16
2022-09-24T14:42:46.921Z,100680.03
2022-09-24T14:45:29.680Z,100665.91
2022-09-24T14:48:20.620Z,100672.72
2022-09-24T14:51:01.712Z,100666.63
2022-09-24T14:53:41.261Z,100663.75
2022-09-24T14:56:28.780Z,100662.94
2022-09-24T14:59:16.514Z,100651.44
2022-09-24T15:02:05.208Z,100661.88
2022-09-24T15:04:48.488Z,100661.22
2022-09-24T15:07:29.883Z,100658.84
2022-09-24T15:10:22.220Z,100648.22
2022-09-24T15:13:13.738Z,100649.22
2022-09-24T15:16:08.802Z,100649.94
2022-09-24T15:18:56.050Z,100650.44
2022-09-24T15:21:35.770Z,100650.31
2022-09-24T15:24:14.325Z,100657.03
2022-09-24T15:27:02.441Z,100653.88
2022-09-24T15:29:43.220Z,100655.09
2022-09-24T15:32:22.930Z,100651.72
2022-09-24T15:35:07.577Z,100650.31
2022-09-24T15:37:48.786Z,100644.50
2022-09-24T15:40:33.743Z,100643.19
2022-09-24T15:43:20.388Z,100644.34
2022-09-24T15:46:01.536Z,100646.56
2022-09-24T15:48:40.970Z,100644.09
2022-09-24T15:51:22.591Z,100641.88
2022-09-24T15:54:02.155Z,100640.69
2022-09-24T15:56:44.387Z,100638.34
2022-09-24T15:59:25.318Z,100634.19
2022-09-24T16:02:11.163Z,100641.47
2022-09-24T16:04:51.046Z,100639.16
2022-09-24T16:07:32.831Z,100640.66
2022-09-24T16:10:13.255Z,100642.84
2022-09-24T16:12:53.660Z,100646.81
2022-09-24T16:15:33.486Z,100635.47
2022-09-24T16:18:15.271Z,100642.72
2022-09-24T16:20:54.627Z,100642.25
2022-09-24T16:23:34.924Z,100637.25
2022-09-24T16:26:16.284Z,100640.59
2022-09-24T16:28:55.677Z,100638.91
2022-09-24T16:31:35.518Z,100641.41
2022-09-24T16:34:17.407Z,100638.75
2022-09-24T16:36:58.740Z,100646.63
2022-09-24T16:39:38.105Z,100646.81
2022-09-24T16:42:18.012Z,100642.47
2022-09-24T16:44:59.797Z,100637.44
2022-09-24T16:47:41.217Z,100638.63
2022-09-24T16:50:23.391Z,100641.97
2022-09-24T16:53:04.911Z,100635.78
2022-09-24T16:55:46.328Z,100639.00
2022-09-24T16:58:26.328Z,100629.84
2022-09-24T17:02:00.780Z,100630.31
2022-09-24T17:04:40.555Z,100639.66
2022-09-24T17:07:23.420Z,100630.50
2022-09-24T17:10:15.832Z,100633.19
2022-09-24T17:12:55.956Z,100629.31
2022-09-24T17:15:35.886Z,100632.72
2022-09-24T17:18:15.539Z,100639.34
2022-09-24T17:21:01.783Z,100637.69
2022-09-24T17:23:43.632Z,100634.84
2022-09-24T17:26:25.524Z,100636.69
2022-09-24T17:29:07.512Z,100645.06
2022-09-24T17:31:49.561Z,100640.06
2022-09-24T17:34:29.219Z,100645.75
2022-09-24T17:37:10.644Z,100643.25
2022-09-24T17:39:48.769Z,100637.06
2022-09-24T17:42:28.937Z,100642.06
2022-09-24T17:45:10.106Z,100639.44
2022-09-24T17:47:58.462Z,100639.66
2022-09-24T17:50:37.665Z,100638.97
2022-09-24T17:53:17.054Z,100643.66
2022-09-24T17:55:56.924Z,100634.31
2022-09-24T17:58:39.400Z,100640.72
2022-09-24T18:02:07.628Z,100634.38
2022-09-24T18:04:47.223Z,100639.06
2022-09-24T18:07:30.509Z,100639.25
2022-09-24T18:10:10.351Z,100643.94
2022-09-24T18:12:54.519Z,100643.09
2022-09-24T18:15:36.891Z,100644.09
2022-09-24T18:18:18.694Z,100636.59
2022-09-24T18:20:59.786Z,100652.66
2022-09-24T18:23:42.882Z,100646.25
2022-09-24T18:26:24.228Z,100652.13
2022-09-24T18:29:05.900Z,100659.31
2022-09-24T18:31:46.168Z,100655.63
2022-09-24T18:34:26.726Z,100660.63
2022-09-24T18:37:05.934Z,100655.63
2022-09-24T18:39:45.241Z,100653.31
2022-09-24T18:42:25.660Z,100665.13
2022-09-24T18:45:09.344Z,100653.13
2022-09-24T18:47:49.987Z,100651.66
2022-09-24T18:50:30.419Z,100653.63
2022-09-24T18:53:10.249Z,100653.97
2022-09-24T18:55:50.104Z,100651.66
2022-09-24T18:58:29.883Z,100655.63
2022-09-24T19:01:09.212Z,100659.97
2022-09-24T19:03:49.833Z,100651.97
2022-09-24T19:06:28.620Z,100652.31
2022-09-24T19:09:10.034Z,100656.47
2022-09-24T19:11:53.590Z,100658.13
2022-09-24T19:14:33.523Z,100657.66
2022-09-24T19:17:14.759Z,100657.28
2022-09-24T19:20:08.867Z,100657.13
2022-09-24T19:22:58.244Z,100657.94
2022-09-24T19:25:40.523Z,100655.97
2022-09-24T19:28:22.307Z,100657.13
2022-09-24T19:31:03.091Z,100660.63
2022-09-24T19:33:45.128Z,100651.97
2022-09-24T19:36:25.670Z,100651.78
2022-09-24T19:39:06.190Z,100653.63
2022-09-24T19:41:47.254Z,100648.28
2022-09-24T19:44:37.737Z,100650.66
2022-09-24T19:47:18.527Z,100648.44
2022-09-24T19:50:00.285Z,100649.94
2022-09-24T19:52:41.466Z,100649.28
2022-09-24T19:55:35.800Z,100653.63
2022-09-24T19:58:15.578Z,100650.28
2022-09-24T20:00:55.915Z,100656.28
2022-09-24T20:03:40.485Z,100650.47
2022-09-24T20:06:23.490Z,100656.69
2022-09-24T20:09:01.862Z,100658.66
2022-09-24T20:11:39.974Z,100646.31
2022-09-24T20:14:20.610Z,100646.31
2022-09-24T20:17:00.777Z,100651.34
2022-09-24T20:19:40.596Z,100648.16
2022-09-24T20:22:21.105Z,100643.47
2022-09-24T20:25:01.743Z,100631.94
2022-09-24T20:27:52.312Z,100632.59
2022-09-24T20:30:37.681Z,100638.31
2022-09-24T20:33:17.599Z,100632.78
2022-09-24T20:36:02.123Z,100634.16
2022-09-24T20:38:41.753Z,100624.28
2022-09-24T20:41:22.157Z,100621.44
2022-09-24T20:44:14.645Z,100623.63
2022-09-24T20:46:54.420Z,100620.63
2022-09-24T20:49:55.279Z,100616.47
2022-09-24T20:53:30.881Z,100618.94
2022-09-24T20:56:10.212Z,100612.31
2022-09-24T20:59:01.802Z,100618.94
2022-09-24T21:01:44.683Z,100608.13
2022-09-24T21:04:26.973Z,100621.97
2022-09-24T21:07:07.592Z,100614.78
2022-09-24T21:09:47.837Z,100624.97
2022-09-24T21:12:29.234Z,100616.97
2022-09-24T21:15:11.852Z,100625.66
2022-09-24T21:18:21.268Z,100628.28
2022-09-24T21:20:54.172Z,100624.94
2022-09-24T21:23:36.192Z,100629.47
2022-09-24T21:26:18.915Z,100647.94
2022-09-24T21:29:00.610Z,100646.81
2022-09-24T21:31:41.915Z,100655.84
2022-09-24T21:34:35.308Z,100661.19
2022-09-24T21:37:17.659Z,100652.53
2022-09-24T21:39:57.163Z,100664.03
2022-09-24T21:42:37.587Z,100659.88
2022-09-24T21:45:18.394Z,100655.53
2022-09-24T21:47:58.095Z,100656.81
2022-09-24T21:51:30.067Z,100646.00
2022-09-24T21:54:14.115Z,100649.69
2022-09-24T21:56:55.027Z,100647.50
2022-09-24T21:59:50.776Z,100643.19
2022-09-24T22:02:31.309Z,100643.19
2022-09-24T22:05:16.423Z,100636.81
2022-09-24T22:07:55.136Z,100630.00
2022-09-24T22:11:03.654Z,100632.66
2022-09-24T22:13:44.939Z,100628.50
2022-09-24T22:16:24.608Z,100625.19
2022-09-24T22:19:04.613Z,100623.34
2022-09-24T22:21:44.169Z,100620.69
2022-09-24T22:24:23.051Z,100628.34
2022-09-24T22:27:04.456Z,100617.66
2022-09-24T22:29:46.349Z,100611.66
2022-09-24T22:32:26.533Z,100613.50
2022-09-24T22:35:25.633Z,100604.50
2022-09-24T22:38:06.797Z,100613.69
2022-09-24T22:41:29.270Z,100603.34
2022-09-24T22:44:11.572Z,100608.69
2022-09-24T22:46:50.490Z,100609.88
2022-09-24T22:49:32.621Z,100596.34
2022-09-24T22:52:12.931Z,100612.53
2022-09-24T22:55:20.070Z,100619.38
2022-09-24T22:57:59.252Z,100618.53
2022-09-24T23:00:41.405Z,100618.06
2022-09-24T23:03:23.884Z,100621.38
2022-09-24T23:06:02.612Z,100622.03
2022-09-24T23:08:41.083Z,100631.72
2022-09-24T23:11:25.041Z,100622.03
2022-09-24T23:14:05.325Z,100631.41
2022-09-24T23:16:47.345Z,100627.03
2022-09-24T23:19:46.578Z,100637.06
2022-09-24T23:22:26.886Z,100624.75
2022-09-24T23:25:05.567Z,100625.75
2022-09-24T23:27:46.756Z,100621.09
2022-09-24T23:30:29.489Z,100616.94
2022-09-24T23:33:09.616Z,100609.56
2022-09-24T23:36:33.216Z,100623.75
2022-09-24T23:39:14.641Z,100623.44
2022-09-24T23:41:55.419Z,100619.78
2022-09-24T23:44:48.440Z,100624.09
2022-09-24T23:47:41.818Z,100624.59
2022-09-24T23:50:20.987Z,100624.59
2022-09-24T23:53:00.834Z,100621.09
2022-09-24T23:55:42.580Z,100623.44
2022-09-24T23:58:21.805Z,100623.78
